sensor_id;sensor_type;location;lat;lon;timestamp;P1;durP1;ratioP1;P2;durP2;ratioP2
64208;SDS011;50527;52.414;13.226;2022-11-24T00:00:04;15.77;;;4.72;;
64208;SDS011;50527;52.414;13.226;2022-11-24T00:02:30;21.92;;;5.30;;
64208;SDS011;50527;52.414;13.226;2022-11-24T00:04:56;23.25;;;5.68;;
64208;SDS011;50527;52.414;13.226;2022-11-24T00:07:21;11.52;;;4.78;;
64208;SDS011;50527;52.414;13.226;2022-11-24T00:09:47;38.33;;;5.65;;
64208;SDS011;50527;52.414;13.226;2022-11-24T00:12:12;13.88;;;5.57;;
64208;SDS011;50527;52.414;13.226;2022-11-24T00:14:38;15.98;;;5.18;;
64208;SDS011;50527;52.414;13.226;2022-11-24T00:17:03;19.85;;;5.15;;
64208;SDS011;50527;52.414;13.226;2022-11-24T00:19:29;13.77;;;5.00;;
64208;SDS011;50527;52.414;13.226;2022-11-24T00:21:54;20.83;;;5.10;;
64208;SDS011;50527;52.414;13.226;2022-11-24T00:24:20;17.35;;;5.53;;
64208;SDS011;50527;52.414;13.226;2022-11-24T00:26:45;17.15;;;5.35;;
64208;SDS011;50527;52.414;13.226;2022-11-24T00:29:10;22.27;;;5.35;;
64208;SDS011;50527;52.414;13.226;2022-11-24T00:31:37;13.43;;;5.65;;
64208;SDS011;50527;52.414;13.226;2022-11-24T00:34:05;17.13;;;5.97;;
64208;SDS011;50527;52.414;13.226;2022-11-24T00:36:33;35.53;;;5.30;;
64208;SDS011;50527;52.414;13.226;2022-11-24T00:39:00;19.27;;;4.90;;
64208;SDS011;50527;52.414;13.226;2022-11-24T00:41:28;14.10;;;4.78;;
64208;SDS011;50527;52.414;13.226;2022-11-24T00:43:55;31.20;;;5.55;;
64208;SDS011;50527;52.414;13.226;2022-11-24T00:46:21;21.35;;;5.25;;
64208;SDS011;50527;52.414;13.226;2022-11-24T00:48:47;15.98;;;5.07;;
64208;SDS011;50527;52.414;13.226;2022-11-24T00:51:14;16.52;;;5.90;;
64208;SDS011;50527;52.414;13.226;2022-11-24T00:53:41;17.42;;;5.97;;
64208;SDS011;50527;52.414;13.226;2022-11-24T00:56:07;16.20;;;5.90;;
64208;SDS011;50527;52.414;13.226;2022-11-24T00:58:33;55.85;;;7.38;;
64208;SDS011;50527;52.414;13.226;2022-11-24T01:01:03;12.80;;;5.75;;
64208;SDS011;50527;52.414;13.226;2022-11-24T01:03:30;24.67;;;5.90;;
64208;SDS011;50527;52.414;13.226;2022-11-24T01:06:01;23.90;;;6.20;;
64208;SDS011;50527;52.414;13.226;2022-11-24T01:08:31;14.77;;;5.18;;
64208;SDS011;50527;52.414;13.226;2022-11-24T01:11:09;14.25;;;5.13;;
64208;SDS011;50527;52.414;13.226;2022-11-24T01:13:50;45.67;;;6.13;;
64208;SDS011;50527;52.414;13.226;2022-11-24T01:16:19;16.35;;;4.97;;
64208;SDS011;50527;52.414;13.226;2022-11-24T01:18:56;19.58;;;5.03;;
64208;SDS011;50527;52.414;13.226;2022-11-24T01:21:22;15.10;;;5.03;;
64208;SDS011;50527;52.414;13.226;2022-11-24T01:23:47;15.57;;;4.82;;
64208;SDS011;50527;52.414;13.226;2022-11-24T01:26:15;17.92;;;5.78;;
64208;SDS011;50527;52.414;13.226;2022-11-24T01:28:42;14.98;;;4.82;;
64208;SDS011;50527;52.414;13.226;2022-11-24T01:31:07;21.42;;;5.70;;
64208;SDS011;50527;52.414;13.226;2022-11-24T01:33:33;16.13;;;6.07;;
64208;SDS011;50527;52.414;13.226;2022-11-24T01:35:59;16.20;;;5.38;;
64208;SDS011;50527;52.414;13.226;2022-11-24T01:38:25;17.75;;;5.57;;
64208;SDS011;50527;52.414;13.226;2022-11-24T01:41:01;13.13;;;4.95;;
64208;SDS011;50527;52.414;13.226;2022-11-24T01:43:32;31.92;;;5.80;;
64208;SDS011;50527;52.414;13.226;2022-11-24T01:46:01;19.58;;;5.50;;
64208;SDS011;50527;52.414;13.226;2022-11-24T01:48:37;22.58;;;5.35;;
64208;SDS011;50527;52.414;13.226;2022-11-24T01:51:11;11.50;;;4.70;;
64208;SDS011;50527;52.414;13.226;2022-11-24T01:56:07;18.00;;;4.28;;
64208;SDS011;50527;52.414;13.226;2022-11-24T01:58:35;20.02;;;4.43;;
64208;SDS011;50527;52.414;13.226;2022-11-24T02:01:03;13.18;;;4.38;;
64208;SDS011;50527;52.414;13.226;2022-11-24T02:03:31;16.88;;;5.05;;
64208;SDS011;50527;52.414;13.226;2022-11-24T02:08:35;36.95;;;5.90;;
64208;SDS011;50527;52.414;13.226;2022-11-24T02:11:10;24.58;;;5.20;;
64208;SDS011;50527;52.414;13.226;2022-11-24T02:13:36;29.38;;;5.10;;
64208;SDS011;50527;52.414;13.226;2022-11-24T02:16:04;19.13;;;5.60;;
64208;SDS011;50527;52.414;13.226;2022-11-24T02:18:31;29.88;;;5.20;;
64208;SDS011;50527;52.414;13.226;2022-11-24T02:20:58;18.23;;;4.85;;
64208;SDS011;50527;52.414;13.226;2022-11-24T02:23:28;13.20;;;4.97;;
64208;SDS011;50527;52.414;13.226;2022-11-24T02:26:17;13.77;;;5.07;;
64208;SDS011;50527;52.414;13.226;2022-11-24T02:29:05;12.48;;;4.90;;
64208;SDS011;50527;52.414;13.226;2022-11-24T02:31:31;15.38;;;4.97;;
64208;SDS011;50527;52.414;13.226;2022-11-24T02:33:56;22.13;;;5.10;;
64208;SDS011;50527;52.414;13.226;2022-11-24T02:36:22;14.60;;;4.80;;
64208;SDS011;50527;52.414;13.226;2022-11-24T02:38:48;26.08;;;4.88;;
64208;SDS011;50527;52.414;13.226;2022-11-24T02:41:14;18.58;;;5.13;;
64208;SDS011;50527;52.414;13.226;2022-11-24T02:43:45;11.38;;;4.57;;
64208;SDS011;50527;52.414;13.226;2022-11-24T02:46:15;14.63;;;4.60;;
64208;SDS011;50527;52.414;13.226;2022-11-24T02:48:41;16.10;;;4.65;;
64208;SDS011;50527;52.414;13.226;2022-11-24T02:51:06;23.77;;;5.20;;
64208;SDS011;50527;52.414;13.226;2022-11-24T02:53:31;26.15;;;5.25;;
64208;SDS011;50527;52.414;13.226;2022-11-24T02:55:57;35.47;;;6.38;;
64208;SDS011;50527;52.414;13.226;2022-11-24T02:58:22;32.38;;;5.82;;
64208;SDS011;50527;52.414;13.226;2022-11-24T03:00:48;18.48;;;4.60;;
64208;SDS011;50527;52.414;13.226;2022-11-24T03:03:13;17.92;;;5.25;;
64208;SDS011;50527;52.414;13.226;2022-11-24T03:05:39;26.85;;;5.32;;
64208;SDS011;50527;52.414;13.226;2022-11-24T03:08:04;12.82;;;4.75;;
64208;SDS011;50527;52.414;13.226;2022-11-24T03:10:30;17.08;;;4.93;;
64208;SDS011;50527;52.414;13.226;2022-11-24T03:12:56;17.25;;;4.85;;
64208;SDS011;50527;52.414;13.226;2022-11-24T03:15:22;17.58;;;4.63;;
64208;SDS011;50527;52.414;13.226;2022-11-24T03:17:48;11.23;;;4.60;;
64208;SDS011;50527;52.414;13.226;2022-11-24T03:20:14;13.45;;;4.95;;
64208;SDS011;50527;52.414;13.226;2022-11-24T03:22:39;52.75;;;5.68;;
64208;SDS011;50527;52.414;13.226;2022-11-24T03:25:05;14.85;;;4.82;;
64208;SDS011;50527;52.414;13.226;2022-11-24T03:27:31;14.75;;;4.70;;
64208;SDS011;50527;52.414;13.226;2022-11-24T03:29:56;14.60;;;5.00;;
64208;SDS011;50527;52.414;13.226;2022-11-24T03:32:22;12.32;;;4.63;;
64208;SDS011;50527;52.414;13.226;2022-11-24T03:34:47;20.98;;;5.93;;
64208;SDS011;50527;52.414;13.226;2022-11-24T03:37:13;17.77;;;4.57;;
64208;SDS011;50527;52.414;13.226;2022-11-24T03:39:38;11.80;;;4.63;;
64208;SDS011;50527;52.414;13.226;2022-11-24T03:42:04;18.38;;;4.55;;
64208;SDS011;50527;52.414;13.226;2022-11-24T03:44:29;12.52;;;3.85;;
64208;SDS011;50527;52.414;13.226;2022-11-24T03:46:55;11.98;;;4.65;;
64208;SDS011;50527;52.414;13.226;2022-11-24T03:49:20;15.65;;;4.88;;
64208;SDS011;50527;52.414;13.226;2022-11-24T03:51:46;30.08;;;4.88;;
64208;SDS011;50527;52.414;13.226;2022-11-24T03:54:11;11.13;;;4.43;;
64208;SDS011;50527;52.414;13.226;2022-11-24T03:56:36;20.65;;;5.35;;
64208;SDS011;50527;52.414;13.226;2022-11-24T03:59:02;18.77;;;5.53;;
64208;SDS011;50527;52.414;13.226;2022-11-24T04:01:27;14.82;;;5.10;;
64208;SDS011;50527;52.414;13.226;2022-11-24T04:03:53;12.02;;;3.97;;
64208;SDS011;50527;52.414;13.226;2022-11-24T04:06:18;12.77;;;4.70;;
64208;SDS011;50527;52.414;13.226;2022-11-24T04:08:44;11.77;;;4.40;;
64208;SDS011;50527;52.414;13.226;2022-11-24T04:11:09;15.75;;;4.45;;
64208;SDS011;50527;52.414;13.226;2022-11-24T04:13:55;21.63;;;4.57;;
64208;SDS011;50527;52.414;13.226;2022-11-24T04:16:20;10.73;;;3.95;;
64208;SDS011;50527;52.414;13.226;2022-11-24T04:18:46;16.10;;;4.72;;
64208;SDS011;50527;52.414;13.226;2022-11-24T04:21:11;14.70;;;5.03;;
64208;SDS011;50527;52.414;13.226;2022-11-24T04:23:36;29.70;;;4.93;;
64208;SDS011;50527;52.414;13.226;2022-11-24T04:26:03;18.13;;;4.80;;
64208;SDS011;50527;52.414;13.226;2022-11-24T04:28:28;18.95;;;4.38;;
64208;SDS011;50527;52.414;13.226;2022-11-24T04:30:54;18.10;;;4.90;;
64208;SDS011;50527;52.414;13.226;2022-11-24T04:33:19;18.23;;;5.22;;
64208;SDS011;50527;52.414;13.226;2022-11-24T04:35:44;16.05;;;5.10;;
64208;SDS011;50527;52.414;13.226;2022-11-24T04:38:10;17.90;;;5.03;;
64208;SDS011;50527;52.414;13.226;2022-11-24T04:40:36;14.13;;;5.18;;
64208;SDS011;50527;52.414;13.226;2022-11-24T04:43:01;10.05;;;4.65;;
64208;SDS011;50527;52.414;13.226;2022-11-24T04:45:27;13.90;;;4.53;;
64208;SDS011;50527;52.414;13.226;2022-11-24T04:47:52;13.40;;;4.78;;
64208;SDS011;50527;52.414;13.226;2022-11-24T04:50:17;29.40;;;5.90;;
64208;SDS011;50527;52.414;13.226;2022-11-24T04:52:43;12.82;;;5.35;;
64208;SDS011;50527;52.414;13.226;2022-11-24T04:55:09;12.63;;;4.47;;
64208;SDS011;50527;52.414;13.226;2022-11-24T04:57:35;19.58;;;4.38;;
64208;SDS011;50527;52.414;13.226;2022-11-24T05:00:00;15.23;;;5.32;;
64208;SDS011;50527;52.414;13.226;2022-11-24T05:02:25;19.08;;;4.95;;
64208;SDS011;50527;52.414;13.226;2022-11-24T05:04:51;22.25;;;5.45;;
64208;SDS011;50527;52.414;13.226;2022-11-24T05:07:17;11.75;;;4.53;;
64208;SDS011;50527;52.414;13.226;2022-11-24T05:09:43;23.23;;;5.28;;
64208;SDS011;50527;52.414;13.226;2022-11-24T05:12:27;12.27;;;4.30;;
64208;SDS011;50527;52.414;13.226;2022-11-24T05:14:55;12.95;;;4.75;;
64208;SDS011;50527;52.414;13.226;2022-11-24T05:17:22;13.07;;;5.10;;
64208;SDS011;50527;52.414;13.226;2022-11-24T05:19:47;15.48;;;5.35;;
64208;SDS011;50527;52.414;13.226;2022-11-24T05:22:13;15.30;;;4.68;;
64208;SDS011;50527;52.414;13.226;2022-11-24T05:24:38;15.07;;;5.22;;
64208;SDS011;50527;52.414;13.226;2022-11-24T05:27:04;13.48;;;5.15;;
64208;SDS011;50527;52.414;13.226;2022-11-24T05:29:29;14.20;;;4.38;;
64208;SDS011;50527;52.414;13.226;2022-11-24T05:31:54;10.70;;;4.70;;
64208;SDS011;50527;52.414;13.226;2022-11-24T05:34:20;19.52;;;4.20;;
64208;SDS011;50527;52.414;13.226;2022-11-24T05:36:45;9.80;;;3.97;;
64208;SDS011;50527;52.414;13.226;2022-11-24T05:39:17;10.60;;;4.63;;
64208;SDS011;50527;52.414;13.226;2022-11-24T05:41:42;13.10;;;4.38;;
64208;SDS011;50527;52.414;13.226;2022-11-24T05:44:08;25.30;;;4.68;;
64208;SDS011;50527;52.414;13.226;2022-11-24T05:46:33;15.15;;;4.93;;
64208;SDS011;50527;52.414;13.226;2022-11-24T05:48:59;17.75;;;5.30;;
64208;SDS011;50527;52.414;13.226;2022-11-24T05:51:24;16.55;;;4.50;;
64208;SDS011;50527;52.414;13.226;2022-11-24T05:53:50;18.85;;;3.85;;
64208;SDS011;50527;52.414;13.226;2022-11-24T05:56:15;11.20;;;4.35;;
64208;SDS011;50527;52.414;13.226;2022-11-24T05:58:41;13.57;;;4.60;;
64208;SDS011;50527;52.414;13.226;2022-11-24T06:01:07;10.88;;;3.92;;
64208;SDS011;50527;52.414;13.226;2022-11-24T06:03:32;15.63;;;4.45;;
64208;SDS011;50527;52.414;13.226;2022-11-24T06:05:58;17.92;;;4.95;;
64208;SDS011;50527;52.414;13.226;2022-11-24T06:08:23;13.10;;;3.95;;
64208;SDS011;50527;52.414;13.226;2022-11-24T06:10:48;21.38;;;4.22;;
64208;SDS011;50527;52.414;13.226;2022-11-24T06:13:14;10.48;;;4.60;;
64208;SDS011;50527;52.414;13.226;2022-11-24T06:15:39;15.13;;;4.72;;
64208;SDS011;50527;52.414;13.226;2022-11-24T06:18:05;13.70;;;5.00;;
64208;SDS011;50527;52.414;13.226;2022-11-24T06:20:31;17.27;;;4.18;;
64208;SDS011;50527;52.414;13.226;2022-11-24T06:22:57;21.05;;;3.70;;
64208;SDS011;50527;52.414;13.226;2022-11-24T06:25:22;13.35;;;4.28;;
64208;SDS011;50527;52.414;13.226;2022-11-24T06:27:48;14.63;;;4.68;;
64208;SDS011;50527;52.414;13.226;2022-11-24T06:30:13;18.60;;;4.55;;
64208;SDS011;50527;52.414;13.226;2022-11-24T06:32:39;9.65;;;4.20;;
64208;SDS011;50527;52.414;13.226;2022-11-24T06:35:08;11.88;;;4.22;;
64208;SDS011;50527;52.414;13.226;2022-11-24T06:37:35;11.85;;;4.18;;
64208;SDS011;50527;52.414;13.226;2022-11-24T06:40:01;27.15;;;3.78;;
64208;SDS011;50527;52.414;13.226;2022-11-24T06:42:26;12.00;;;4.38;;
64208;SDS011;50527;52.414;13.226;2022-11-24T06:44:52;14.13;;;5.63;;
64208;SDS011;50527;52.414;13.226;2022-11-24T06:47:17;11.43;;;4.05;;
64208;SDS011;50527;52.414;13.226;2022-11-24T06:49:43;11.55;;;4.43;;
64208;SDS011;50527;52.414;13.226;2022-11-24T06:52:08;13.45;;;3.58;;
64208;SDS011;50527;52.414;13.226;2022-11-24T06:54:34;8.80;;;3.83;;
64208;SDS011;50527;52.414;13.226;2022-11-24T06:56:59;11.35;;;4.57;;
64208;SDS011;50527;52.414;13.226;2022-11-24T06:59:25;14.88;;;4.43;;
64208;SDS011;50527;52.414;13.226;2022-11-24T07:01:51;10.88;;;4.15;;
64208;SDS011;50527;52.414;13.226;2022-11-24T07:04:17;16.63;;;4.00;;
64208;SDS011;50527;52.414;13.226;2022-11-24T07:06:43;13.18;;;4.25;;
64208;SDS011;50527;52.414;13.226;2022-11-24T07:09:09;16.17;;;4.95;;
64208;SDS011;50527;52.414;13.226;2022-11-24T07:11:36;9.55;;;3.70;;
64208;SDS011;50527;52.414;13.226;2022-11-24T07:14:02;11.48;;;4.18;;
64208;SDS011;50527;52.414;13.226;2022-11-24T07:16:28;18.33;;;4.85;;
64208;SDS011;50527;52.414;13.226;2022-11-24T07:18:54;14.82;;;4.43;;
64208;SDS011;50527;52.414;13.226;2022-11-24T07:21:21;19.83;;;5.13;;
64208;SDS011;50527;52.414;13.226;2022-11-24T07:23:47;12.88;;;4.32;;
64208;SDS011;50527;52.414;13.226;2022-11-24T07:26:14;12.82;;;4.53;;
64208;SDS011;50527;52.414;13.226;2022-11-24T07:28:40;13.73;;;4.25;;
64208;SDS011;50527;52.414;13.226;2022-11-24T07:31:06;12.27;;;3.53;;
64208;SDS011;50527;52.414;13.226;2022-11-24T07:33:33;12.27;;;4.43;;
64208;SDS011;50527;52.414;13.226;2022-11-24T07:35:59;14.48;;;4.90;;
64208;SDS011;50527;52.414;13.226;2022-11-24T07:38:25;15.20;;;5.07;;
64208;SDS011;50527;52.414;13.226;2022-11-24T07:40:53;12.88;;;3.92;;
64208;SDS011;50527;52.414;13.226;2022-11-24T07:43:18;12.32;;;4.20;;
64208;SDS011;50527;52.414;13.226;2022-11-24T07:45:49;10.50;;;3.60;;
64208;SDS011;50527;52.414;13.226;2022-11-24T07:48:15;12.40;;;3.95;;
64208;SDS011;50527;52.414;13.226;2022-11-24T07:50:41;10.32;;;3.58;;
64208;SDS011;50527;52.414;13.226;2022-11-24T07:53:06;12.45;;;3.65;;
64208;SDS011;50527;52.414;13.226;2022-11-24T07:55:32;11.50;;;4.40;;
64208;SDS011;50527;52.414;13.226;2022-11-24T07:57:58;11.85;;;4.30;;
64208;SDS011;50527;52.414;13.226;2022-11-24T08:00:24;12.93;;;4.05;;
64208;SDS011;50527;52.414;13.226;2022-11-24T08:02:51;9.23;;;3.67;;
64208;SDS011;50527;52.414;13.226;2022-11-24T08:05:16;12.63;;;3.75;;
64208;SDS011;50527;52.414;13.226;2022-11-24T08:07:41;13.10;;;4.43;;
64208;SDS011;50527;52.414;13.226;2022-11-24T08:10:07;12.25;;;4.00;;
64208;SDS011;50527;52.414;13.226;2022-11-24T08:12:33;17.23;;;4.70;;
64208;SDS011;50527;52.414;13.226;2022-11-24T08:14:58;11.18;;;4.25;;
64208;SDS011;50527;52.414;13.226;2022-11-24T08:17:24;11.32;;;4.00;;
64208;SDS011;50527;52.414;13.226;2022-11-24T08:19:49;11.68;;;3.88;;
64208;SDS011;50527;52.414;13.226;2022-11-24T08:22:15;15.40;;;4.65;;
64208;SDS011;50527;52.414;13.226;2022-11-24T08:24:40;12.18;;;4.50;;
64208;SDS011;50527;52.414;13.226;2022-11-24T08:27:11;14.77;;;4.70;;
64208;SDS011;50527;52.414;13.226;2022-11-24T08:29:37;13.27;;;4.50;;
64208;SDS011;50527;52.414;13.226;2022-11-24T08:32:02;13.57;;;4.13;;
64208;SDS011;50527;52.414;13.226;2022-11-24T08:34:28;13.73;;;4.47;;
64208;SDS011;50527;52.414;13.226;2022-11-24T08:36:54;10.02;;;4.30;;
64208;SDS011;50527;52.414;13.226;2022-11-24T08:39:19;14.65;;;4.10;;
64208;SDS011;50527;52.414;13.226;2022-11-24T08:41:45;11.45;;;4.82;;
64208;SDS011;50527;52.414;13.226;2022-11-24T08:44:10;12.77;;;4.60;;
64208;SDS011;50527;52.414;13.226;2022-11-24T08:46:39;10.65;;;4.43;;
64208;SDS011;50527;52.414;13.226;2022-11-24T08:49:05;11.40;;;4.53;;
64208;SDS011;50527;52.414;13.226;2022-11-24T08:51:31;11.82;;;4.65;;
64208;SDS011;50527;52.414;13.226;2022-11-24T08:53:58;11.65;;;4.53;;
64208;SDS011;50527;52.414;13.226;2022-11-24T08:56:26;12.02;;;4.35;;
64208;SDS011;50527;52.414;13.226;2022-11-24T08:58:53;11.48;;;3.95;;
64208;SDS011;50527;52.414;13.226;2022-11-24T09:01:19;11.18;;;4.15;;
64208;SDS011;50527;52.414;13.226;2022-11-24T09:03:46;9.60;;;3.88;;
64208;SDS011;50527;52.414;13.226;2022-11-24T09:06:12;8.68;;;3.85;;
64208;SDS011;50527;52.414;13.226;2022-11-24T09:08:38;13.00;;;4.63;;
64208;SDS011;50527;52.414;13.226;2022-11-24T09:11:04;15.18;;;4.80;;
64208;SDS011;50527;52.414;13.226;2022-11-24T09:13:31;12.52;;;4.20;;
64208;SDS011;50527;52.414;13.226;2022-11-24T09:16:01;11.05;;;4.40;;
64208;SDS011;50527;52.414;13.226;2022-11-24T09:18:28;9.23;;;4.00;;
64208;SDS011;50527;52.414;13.226;2022-11-24T09:20:53;14.20;;;4.15;;
64208;SDS011;50527;52.414;13.226;2022-11-24T09:23:22;11.07;;;4.40;;
64208;SDS011;50527;52.414;13.226;2022-11-24T09:25:47;9.55;;;4.00;;
64208;SDS011;50527;52.414;13.226;2022-11-24T09:28:13;10.57;;;4.25;;
64208;SDS011;50527;52.414;13.226;2022-11-24T09:30:38;12.52;;;4.40;;
64208;SDS011;50527;52.414;13.226;2022-11-24T09:33:04;17.40;;;5.50;;
64208;SDS011;50527;52.414;13.226;2022-11-24T09:35:29;12.88;;;4.50;;
64208;SDS011;50527;52.414;13.226;2022-11-24T09:37:55;14.82;;;4.65;;
64208;SDS011;50527;52.414;13.226;2022-11-24T09:40:21;12.30;;;4.38;;
64208;SDS011;50527;52.414;13.226;2022-11-24T09:48:09;14.05;;;4.75;;
64208;SDS011;50527;52.414;13.226;2022-11-24T09:50:41;18.02;;;4.53;;
64208;SDS011;50527;52.414;13.226;2022-11-24T09:53:14;10.07;;;4.20;;
64208;SDS011;50527;52.414;13.226;2022-11-24T09:56:25;14.57;;;5.18;;
64208;SDS011;50527;52.414;13.226;2022-11-24T09:58:50;17.30;;;5.70;;
64208;SDS011;50527;52.414;13.226;2022-11-24T10:01:33;11.60;;;4.63;;
64208;SDS011;50527;52.414;13.226;2022-11-24T10:04:01;13.70;;;4.70;;
64208;SDS011;50527;52.414;13.226;2022-11-24T10:06:29;10.18;;;4.47;;
64208;SDS011;50527;52.414;13.226;2022-11-24T10:09:20;12.70;;;4.72;;
64208;SDS011;50527;52.414;13.226;2022-11-24T10:12:11;11.88;;;5.00;;
64208;SDS011;50527;52.414;13.226;2022-11-24T10:20:47;10.65;;;4.30;;
64208;SDS011;50527;52.414;13.226;2022-11-24T10:26:36;11.93;;;4.32;;
64208;SDS011;50527;52.414;13.226;2022-11-24T10:29:14;13.43;;;5.20;;
64208;SDS011;50527;52.414;13.226;2022-11-24T10:31:49;11.60;;;4.47;;
64208;SDS011;50527;52.414;13.226;2022-11-24T10:34:21;12.02;;;4.90;;
64208;SDS011;50527;52.414;13.226;2022-11-24T10:37:16;10.57;;;4.45;;
64208;SDS011;50527;52.414;13.226;2022-11-24T10:42:41;11.85;;;4.53;;
64208;SDS011;50527;52.414;13.226;2022-11-24T10:47:37;12.40;;;4.85;;
64208;SDS011;50527;52.414;13.226;2022-11-24T10:50:04;13.88;;;5.55;;
64208;SDS011;50527;52.414;13.226;2022-11-24T10:52:40;15.38;;;5.63;;
64208;SDS011;50527;52.414;13.226;2022-11-24T10:55:08;14.43;;;5.25;;
64208;SDS011;50527;52.414;13.226;2022-11-24T10:57:35;15.70;;;5.28;;
64208;SDS011;50527;52.414;13.226;2022-11-24T11:02:42;16.38;;;5.60;;
64208;SDS011;50527;52.414;13.226;2022-11-24T11:05:26;16.45;;;4.80;;
64208;SDS011;50527;52.414;13.226;2022-11-24T11:10:47;12.88;;;5.03;;
64208;SDS011;50527;52.414;13.226;2022-11-24T11:13:27;12.63;;;4.82;;
64208;SDS011;50527;52.414;13.226;2022-11-24T11:15:55;13.65;;;6.03;;
64208;SDS011;50527;52.414;13.226;2022-11-24T11:18:30;16.45;;;5.47;;
64208;SDS011;50527;52.414;13.226;2022-11-24T11:20:57;12.77;;;5.22;;
64208;SDS011;50527;52.414;13.226;2022-11-24T11:23:30;17.90;;;5.93;;
64208;SDS011;50527;52.414;13.226;2022-11-24T11:29:10;16.65;;;4.88;;
64208;SDS011;50527;52.414;13.226;2022-11-24T11:31:39;12.63;;;4.93;;
64208;SDS011;50527;52.414;13.226;2022-11-24T11:36:33;14.02;;;5.28;;
64208;SDS011;50527;52.414;13.226;2022-11-24T11:39:05;17.60;;;6.10;;
64208;SDS011;50527;52.414;13.226;2022-11-24T11:41:35;14.30;;;5.22;;
64208;SDS011;50527;52.414;13.226;2022-11-24T11:46:49;10.80;;;4.38;;
64208;SDS011;50527;52.414;13.226;2022-11-24T11:49:17;12.05;;;5.43;;
64208;SDS011;50527;52.414;13.226;2022-11-24T11:51:50;12.55;;;5.40;;
64208;SDS011;50527;52.414;13.226;2022-11-24T11:54:36;11.52;;;5.07;;
64208;SDS011;50527;52.414;13.226;2022-11-24T11:57:49;15.70;;;5.65;;
64208;SDS011;50527;52.414;13.226;2022-11-24T12:00:27;10.40;;;5.05;;
64208;SDS011;50527;52.414;13.226;2022-11-24T12:08:50;15.90;;;5.80;;
64208;SDS011;50527;52.414;13.226;2022-11-24T12:14:31;15.43;;;4.70;;
64208;SDS011;50527;52.414;13.226;2022-11-24T12:19:38;13.35;;;5.10;;
64208;SDS011;50527;52.414;13.226;2022-11-24T12:25:21;12.93;;;4.72;;
64208;SDS011;50527;52.414;13.226;2022-11-24T12:28:04;12.43;;;4.53;;
64208;SDS011;50527;52.414;13.226;2022-11-24T12:31:00;16.13;;;5.15;;
64208;SDS011;50527;52.414;13.226;2022-11-24T12:33:35;17.20;;;5.47;;
64208;SDS011;50527;52.414;13.226;2022-11-24T12:36:28;15.70;;;5.15;;
64208;SDS011;50527;52.414;13.226;2022-11-24T12:39:12;15.45;;;5.18;;
64208;SDS011;50527;52.414;13.226;2022-11-24T12:47:13;15.18;;;5.75;;
64208;SDS011;50527;52.414;13.226;2022-11-24T12:49:48;15.40;;;5.18;;
64208;SDS011;50527;52.414;13.226;2022-11-24T12:52:36;14.05;;;4.97;;
64208;SDS011;50527;52.414;13.226;2022-11-24T12:55:11;16.73;;;5.40;;
64208;SDS011;50527;52.414;13.226;2022-11-24T12:57:43;16.83;;;5.78;;
64208;SDS011;50527;52.414;13.226;2022-11-24T13:00:21;17.30;;;5.75;;
64208;SDS011;50527;52.414;13.226;2022-11-24T13:03:01;14.13;;;5.47;;
64208;SDS011;50527;52.414;13.226;2022-11-24T13:05:35;12.35;;;5.13;;
64208;SDS011;50527;52.414;13.226;2022-11-24T13:08:16;16.05;;;5.10;;
64208;SDS011;50527;52.414;13.226;2022-11-24T13:10:42;11.13;;;4.68;;
64208;SDS011;50527;52.414;13.226;2022-11-24T13:13:09;13.60;;;5.03;;
64208;SDS011;50527;52.414;13.226;2022-11-24T13:21:29;12.98;;;4.82;;
64208;SDS011;50527;52.414;13.226;2022-11-24T13:23:58;15.73;;;5.75;;
64208;SDS011;50527;52.414;13.226;2022-11-24T13:26:45;17.30;;;5.50;;
64208;SDS011;50527;52.414;13.226;2022-11-24T13:29:32;11.73;;;5.60;;
64208;SDS011;50527;52.414;13.226;2022-11-24T13:39:51;13.43;;;5.05;;
64208;SDS011;50527;52.414;13.226;2022-11-24T13:42:16;10.48;;;4.80;;
64208;SDS011;50527;52.414;13.226;2022-11-24T13:44:46;12.50;;;5.25;;
64208;SDS011;50527;52.414;13.226;2022-11-24T13:47:36;12.57;;;5.50;;
64208;SDS011;50527;52.414;13.226;2022-11-24T13:50:05;18.25;;;5.90;;
64208;SDS011;50527;52.414;13.226;2022-11-24T13:57:43;17.77;;;6.22;;
64208;SDS011;50527;52.414;13.226;2022-11-24T14:02:45;14.50;;;5.10;;
64208;SDS011;50527;52.414;13.226;2022-11-24T14:05:14;13.48;;;5.75;;
64208;SDS011;50527;52.414;13.226;2022-11-24T14:07:41;14.60;;;5.78;;
64208;SDS011;50527;52.414;13.226;2022-11-24T14:10:15;13.95;;;6.40;;
64208;SDS011;50527;52.414;13.226;2022-11-24T14:12:46;17.15;;;5.45;;
64208;SDS011;50527;52.414;13.226;2022-11-24T14:15:22;11.25;;;5.38;;
64208;SDS011;50527;52.414;13.226;2022-11-24T14:17:49;12.57;;;5.43;;
64208;SDS011;50527;52.414;13.226;2022-11-24T14:20:17;13.90;;;5.53;;
64208;SDS011;50527;52.414;13.226;2022-11-24T14:22:47;16.02;;;5.93;;
64208;SDS011;50527;52.414;13.226;2022-11-24T14:25:30;16.02;;;5.85;;
64208;SDS011;50527;52.414;13.226;2022-11-24T14:27:56;15.00;;;5.67;;
64208;SDS011;50527;52.414;13.226;2022-11-24T14:30:23;17.27;;;6.10;;
64208;SDS011;50527;52.414;13.226;2022-11-24T14:32:55;15.80;;;5.75;;
64208;SDS011;50527;52.414;13.226;2022-11-24T14:35:33;11.63;;;5.30;;
64208;SDS011;50527;52.414;13.226;2022-11-24T14:38:00;15.50;;;5.88;;
64208;SDS011;50527;52.414;13.226;2022-11-24T14:43:30;11.83;;;5.30;;
64208;SDS011;50527;52.414;13.226;2022-11-24T14:45:57;13.38;;;5.75;;
64208;SDS011;50527;52.414;13.226;2022-11-24T14:48:26;14.32;;;5.68;;
64208;SDS011;50527;52.414;13.226;2022-11-24T14:51:04;13.32;;;5.47;;
64208;SDS011;50527;52.414;13.226;2022-11-24T14:53:51;15.60;;;5.70;;
64208;SDS011;50527;52.414;13.226;2022-11-24T14:56:28;17.42;;;5.85;;
64208;SDS011;50527;52.414;13.226;2022-11-24T14:59:01;13.43;;;5.93;;
64208;SDS011;50527;52.414;13.226;2022-11-24T15:01:32;13.40;;;5.13;;
64208;SDS011;50527;52.414;13.226;2022-11-24T15:09:37;13.90;;;5.13;;
64208;SDS011;50527;52.414;13.226;2022-11-24T15:15:00;17.05;;;5.68;;
64208;SDS011;50527;52.414;13.226;2022-11-24T15:17:31;14.88;;;5.50;;
64208;SDS011;50527;52.414;13.226;2022-11-24T15:19:59;14.88;;;5.50;;
64208;SDS011;50527;52.414;13.226;2022-11-24T15:22:37;12.88;;;5.38;;
64208;SDS011;50527;52.414;13.226;2022-11-24T15:27:53;18.50;;;5.82;;
64208;SDS011;50527;52.414;13.226;2022-11-24T15:30:18;14.88;;;5.13;;
64208;SDS011;50527;52.414;13.226;2022-11-24T15:32:57;15.32;;;5.82;;
64208;SDS011;50527;52.414;13.226;2022-11-24T15:35:32;15.88;;;5.78;;
64208;SDS011;50527;52.414;13.226;2022-11-24T15:37:57;16.40;;;6.13;;
64208;SDS011;50527;52.414;13.226;2022-11-24T15:40:23;17.83;;;6.43;;
64208;SDS011;50527;52.414;13.226;2022-11-24T15:42:49;15.07;;;5.47;;
64208;SDS011;50527;52.414;13.226;2022-11-24T15:45:17;13.77;;;5.22;;
64208;SDS011;50527;52.414;13.226;2022-11-24T15:47:43;17.95;;;6.00;;
64208;SDS011;50527;52.414;13.226;2022-11-24T15:50:09;16.55;;;5.25;;
64208;SDS011;50527;52.414;13.226;2022-11-24T15:52:35;12.90;;;5.38;;
64208;SDS011;50527;52.414;13.226;2022-11-24T15:55:01;18.50;;;5.80;;
64208;SDS011;50527;52.414;13.226;2022-11-24T15:57:27;17.08;;;5.72;;
64208;SDS011;50527;52.414;13.226;2022-11-24T15:59:52;13.77;;;5.38;;
64208;SDS011;50527;52.414;13.226;2022-11-24T16:02:17;12.43;;;5.03;;
64208;SDS011;50527;52.414;13.226;2022-11-24T16:04:45;15.15;;;5.40;;